sensor_id;sensor_type;location;lat;lon;timestamp;P1;durP1;ratioP1;P2;durP2;ratioP2
50569;SDS011;36525;49.398;7.614;2022-10-16T00:01:38;1.60;;;0.55;;
50569;SDS011;36525;49.398;7.614;2022-10-16T00:04:05;0.63;;;0.50;;
50569;SDS011;36525;49.398;7.614;2022-10-16T00:06:32;1.30;;;0.40;;
50569;SDS011;36525;49.398;7.614;2022-10-16T00:09:00;0.65;;;0.40;;
50569;SDS011;36525;49.398;7.614;2022-10-16T00:11:28;0.90;;;0.45;;
50569;SDS011;36525;49.398;7.614;2022-10-16T00:14:03;0.70;;;0.50;;
50569;SDS011;36525;49.398;7.614;2022-10-16T00:16:35;1.42;;;0.47;;
50569;SDS011;36525;49.398;7.614;2022-10-16T00:19:02;2.80;;;0.50;;
50569;SDS011;36525;49.398;7.614;2022-10-16T00:21:30;1.42;;;0.60;;
50569;SDS011;36525;49.398;7.614;2022-10-16T00:23:59;1.65;;;0.70;;
50569;SDS011;36525;49.398;7.614;2022-10-16T00:26:33;1.35;;;0.70;;
50569;SDS011;36525;49.398;7.614;2022-10-16T00:29:01;2.35;;;0.70;;
50569;SDS011;36525;49.398;7.614;2022-10-16T00:31:29;1.30;;;0.70;;
50569;SDS011;36525;49.398;7.614;2022-10-16T00:33:56;1.33;;;0.70;;
50569;SDS011;36525;49.398;7.614;2022-10-16T00:36:24;2.25;;;0.50;;
50569;SDS011;36525;49.398;7.614;2022-10-16T00:38:52;4.97;;;0.80;;
50569;SDS011;36525;49.398;7.614;2022-10-16T00:41:22;1.70;;;0.40;;
50569;SDS011;36525;49.398;7.614;2022-10-16T00:43:51;1.42;;;0.50;;
50569;SDS011;36525;49.398;7.614;2022-10-16T00:46:27;1.85;;;0.50;;
50569;SDS011;36525;49.398;7.614;2022-10-16T00:48:59;3.20;;;0.70;;
50569;SDS011;36525;49.398;7.614;2022-10-16T00:51:42;1.38;;;0.55;;
50569;SDS011;36525;49.398;7.614;2022-10-16T00:54:13;4.63;;;0.60;;
50569;SDS011;36525;49.398;7.614;2022-10-16T00:56:46;1.88;;;0.63;;
50569;SDS011;36525;49.398;7.614;2022-10-16T01:01:52;4.47;;;0.65;;
50569;SDS011;36525;49.398;7.614;2022-10-16T01:04:20;0.90;;;0.40;;
50569;SDS011;36525;49.398;7.614;2022-10-16T01:07:06;1.00;;;0.60;;
50569;SDS011;36525;49.398;7.614;2022-10-16T01:18:34;2.72;;;0.65;;
50569;SDS011;36525;49.398;7.614;2022-10-16T01:21:22;1.17;;;0.55;;
50569;SDS011;36525;49.398;7.614;2022-10-16T01:24:11;2.90;;;1.05;;
50569;SDS011;36525;49.398;7.614;2022-10-16T01:32:08;4.97;;;0.90;;
50569;SDS011;36525;49.398;7.614;2022-10-16T01:35:15;2.75;;;1.20;;
50569;SDS011;36525;49.398;7.614;2022-10-16T01:38:12;4.70;;;1.10;;
50569;SDS011;36525;49.398;7.614;2022-10-16T01:41:13;2.30;;;1.00;;
50569;SDS011;36525;49.398;7.614;2022-10-16T01:43:49;2.33;;;1.20;;
50569;SDS011;36525;49.398;7.614;2022-10-16T01:46:27;3.70;;;1.50;;
50569;SDS011;36525;49.398;7.614;2022-10-16T01:48:56;3.33;;;1.30;;
50569;SDS011;36525;49.398;7.614;2022-10-16T01:51:25;1.95;;;1.20;;
50569;SDS011;36525;49.398;7.614;2022-10-16T01:53:54;4.50;;;1.13;;
50569;SDS011;36525;49.398;7.614;2022-10-16T01:56:23;4.28;;;1.85;;
50569;SDS011;36525;49.398;7.614;2022-10-16T01:58:53;1.77;;;1.02;;
50569;SDS011;36525;49.398;7.614;2022-10-16T02:01:34;3.28;;;0.90;;
50569;SDS011;36525;49.398;7.614;2022-10-16T02:04:12;2.60;;;1.00;;
50569;SDS011;36525;49.398;7.614;2022-10-16T02:07:02;5.82;;;1.00;;
50569;SDS011;36525;49.398;7.614;2022-10-16T02:09:30;1.17;;;0.60;;
50569;SDS011;36525;49.398;7.614;2022-10-16T02:12:01;3.97;;;0.88;;
50569;SDS011;36525;49.398;7.614;2022-10-16T02:14:40;4.10;;;0.68;;
50569;SDS011;36525;49.398;7.614;2022-10-16T02:17:12;2.60;;;0.60;;
50569;SDS011;36525;49.398;7.614;2022-10-16T02:19:42;1.48;;;0.60;;
50569;SDS011;36525;49.398;7.614;2022-10-16T02:22:57;1.77;;;0.50;;
50569;SDS011;36525;49.398;7.614;2022-10-16T02:30:19;3.22;;;0.60;;
50569;SDS011;36525;49.398;7.614;2022-10-16T02:32:48;5.25;;;0.77;;
50569;SDS011;36525;49.398;7.614;2022-10-16T02:35:17;2.45;;;0.50;;
50569;SDS011;36525;49.398;7.614;2022-10-16T02:37:46;1.30;;;0.38;;
50569;SDS011;36525;49.398;7.614;2022-10-16T02:40:15;2.20;;;0.40;;
50569;SDS011;36525;49.398;7.614;2022-10-16T02:42:50;2.25;;;0.43;;
50569;SDS011;36525;49.398;7.614;2022-10-16T02:45:21;5.30;;;0.60;;
50569;SDS011;36525;49.398;7.614;2022-10-16T02:47:50;0.82;;;0.40;;
50569;SDS011;36525;49.398;7.614;2022-10-16T02:50:17;0.68;;;0.50;;
50569;SDS011;36525;49.398;7.614;2022-10-16T02:52:44;3.13;;;0.60;;
50569;SDS011;36525;49.398;7.614;2022-10-16T02:55:11;2.22;;;0.40;;
50569;SDS011;36525;49.398;7.614;2022-10-16T02:57:38;1.58;;;0.40;;
50569;SDS011;36525;49.398;7.614;2022-10-16T03:00:08;0.65;;;0.30;;
50569;SDS011;36525;49.398;7.614;2022-10-16T03:02:36;2.53;;;0.35;;
50569;SDS011;36525;49.398;7.614;2022-10-16T03:05:03;1.60;;;0.38;;
50569;SDS011;36525;49.398;7.614;2022-10-16T03:07:31;2.60;;;0.40;;
50569;SDS011;36525;49.398;7.614;2022-10-16T03:09:58;4.22;;;0.60;;
50569;SDS011;36525;49.398;7.614;2022-10-16T03:12:28;1.38;;;0.32;;
50569;SDS011;36525;49.398;7.614;2022-10-16T03:14:55;3.70;;;0.47;;
50569;SDS011;36525;49.398;7.614;2022-10-16T03:17:23;2.42;;;0.52;;
50569;SDS011;36525;49.398;7.614;2022-10-16T03:19:51;2.85;;;0.38;;
50569;SDS011;36525;49.398;7.614;2022-10-16T03:22:18;1.85;;;0.32;;
50569;SDS011;36525;49.398;7.614;2022-10-16T03:24:45;3.40;;;0.38;;
50569;SDS011;36525;49.398;7.614;2022-10-16T03:27:12;2.58;;;0.30;;
50569;SDS011;36525;49.398;7.614;2022-10-16T03:29:38;3.63;;;0.40;;
50569;SDS011;36525;49.398;7.614;2022-10-16T03:32:05;1.45;;;0.30;;
50569;SDS011;36525;49.398;7.614;2022-10-16T03:34:32;3.30;;;0.40;;
50569;SDS011;36525;49.398;7.614;2022-10-16T03:36:59;1.40;;;0.30;;
50569;SDS011;36525;49.398;7.614;2022-10-16T03:39:26;0.30;;;0.20;;
50569;SDS011;36525;49.398;7.614;2022-10-16T03:41:53;5.00;;;0.40;;
50569;SDS011;36525;49.398;7.614;2022-10-16T03:44:20;0.82;;;0.30;;
50569;SDS011;36525;49.398;7.614;2022-10-16T03:46:47;2.53;;;0.30;;
50569;SDS011;36525;49.398;7.614;2022-10-16T03:49:14;1.83;;;0.35;;
50569;SDS011;36525;49.398;7.614;2022-10-16T03:51:41;3.75;;;0.40;;
50569;SDS011;36525;49.398;7.614;2022-10-16T03:54:09;1.27;;;0.30;;
50569;SDS011;36525;49.398;7.614;2022-10-16T03:56:36;3.20;;;0.30;;
50569;SDS011;36525;49.398;7.614;2022-10-16T03:59:04;1.25;;;0.30;;
50569;SDS011;36525;49.398;7.614;2022-10-16T04:01:31;1.35;;;0.30;;
50569;SDS011;36525;49.398;7.614;2022-10-16T04:03:57;0.75;;;0.30;;
50569;SDS011;36525;49.398;7.614;2022-10-16T04:06:24;1.42;;;0.30;;
50569;SDS011;36525;49.398;7.614;2022-10-16T04:08:51;4.45;;;0.50;;
50569;SDS011;36525;49.398;7.614;2022-10-16T04:11:18;1.30;;;0.40;;
50569;SDS011;36525;49.398;7.614;2022-10-16T04:13:45;2.45;;;0.45;;
50569;SDS011;36525;49.398;7.614;2022-10-16T04:16:12;1.73;;;0.50;;
50569;SDS011;36525;49.398;7.614;2022-10-16T04:18:39;3.28;;;0.50;;
50569;SDS011;36525;49.398;7.614;2022-10-16T04:21:06;3.80;;;0.40;;
50569;SDS011;36525;49.398;7.614;2022-10-16T04:23:33;2.15;;;0.40;;
50569;SDS011;36525;49.398;7.614;2022-10-16T04:26:00;1.85;;;0.50;;
50569;SDS011;36525;49.398;7.614;2022-10-16T04:28:27;1.67;;;0.57;;
50569;SDS011;36525;49.398;7.614;2022-10-16T04:30:54;1.60;;;0.57;;
50569;SDS011;36525;49.398;7.614;2022-10-16T04:33:21;2.20;;;0.60;;
50569;SDS011;36525;49.398;7.614;2022-10-16T04:35:48;1.30;;;0.60;;
50569;SDS011;36525;49.398;7.614;2022-10-16T04:38:22;1.30;;;0.50;;
50569;SDS011;36525;49.398;7.614;2022-10-16T04:40:49;1.85;;;0.77;;
50569;SDS011;36525;49.398;7.614;2022-10-16T04:43:16;8.38;;;0.85;;
50569;SDS011;36525;49.398;7.614;2022-10-16T04:45:43;5.32;;;0.93;;
50569;SDS011;36525;49.398;7.614;2022-10-16T04:48:10;1.42;;;0.60;;
50569;SDS011;36525;49.398;7.614;2022-10-16T04:50:37;3.17;;;0.85;;
50569;SDS011;36525;49.398;7.614;2022-10-16T04:53:04;2.35;;;0.98;;
50569;SDS011;36525;49.398;7.614;2022-10-16T04:55:33;2.67;;;0.98;;
50569;SDS011;36525;49.398;7.614;2022-10-16T04:58:00;2.25;;;0.93;;
50569;SDS011;36525;49.398;7.614;2022-10-16T05:00:27;5.32;;;1.10;;
50569;SDS011;36525;49.398;7.614;2022-10-16T05:02:54;5.15;;;0.95;;
50569;SDS011;36525;49.398;7.614;2022-10-16T05:05:21;4.80;;;1.05;;
50569;SDS011;36525;49.398;7.614;2022-10-16T05:07:49;3.15;;;1.05;;
50569;SDS011;36525;49.398;7.614;2022-10-16T05:10:16;3.03;;;1.25;;
50569;SDS011;36525;49.398;7.614;2022-10-16T05:12:43;3.33;;;0.85;;
50569;SDS011;36525;49.398;7.614;2022-10-16T05:15:10;3.85;;;0.70;;
50569;SDS011;36525;49.398;7.614;2022-10-16T05:17:37;3.40;;;0.75;;
50569;SDS011;36525;49.398;7.614;2022-10-16T05:20:10;2.42;;;1.00;;
50569;SDS011;36525;49.398;7.614;2022-10-16T05:22:39;4.50;;;0.95;;
50569;SDS011;36525;49.398;7.614;2022-10-16T05:25:06;3.75;;;0.60;;
50569;SDS011;36525;49.398;7.614;2022-10-16T05:27:33;1.23;;;0.70;;
50569;SDS011;36525;49.398;7.614;2022-10-16T05:30:00;6.75;;;2.88;;
50569;SDS011;36525;49.398;7.614;2022-10-16T05:32:26;5.57;;;2.63;;
50569;SDS011;36525;49.398;7.614;2022-10-16T05:34:53;8.63;;;2.97;;
50569;SDS011;36525;49.398;7.614;2022-10-16T05:37:20;6.70;;;2.63;;
50569;SDS011;36525;49.398;7.614;2022-10-16T05:39:47;3.50;;;1.52;;
50569;SDS011;36525;49.398;7.614;2022-10-16T05:42:14;4.82;;;1.75;;
50569;SDS011;36525;49.398;7.614;2022-10-16T05:44:41;2.67;;;1.10;;
50569;SDS011;36525;49.398;7.614;2022-10-16T05:47:08;2.33;;;0.80;;
50569;SDS011;36525;49.398;7.614;2022-10-16T05:49:34;6.45;;;1.23;;
50569;SDS011;36525;49.398;7.614;2022-10-16T05:52:06;5.63;;;1.10;;
50569;SDS011;36525;49.398;7.614;2022-10-16T05:54:33;2.15;;;0.80;;
50569;SDS011;36525;49.398;7.614;2022-10-16T05:57:00;2.58;;;0.90;;
50569;SDS011;36525;49.398;7.614;2022-10-16T05:59:28;3.20;;;0.68;;
50569;SDS011;36525;49.398;7.614;2022-10-16T06:01:55;1.95;;;0.77;;
50569;SDS011;36525;49.398;7.614;2022-10-16T06:04:21;3.72;;;1.05;;
50569;SDS011;36525;49.398;7.614;2022-10-16T06:06:49;2.55;;;1.00;;
50569;SDS011;36525;49.398;7.614;2022-10-16T06:09:16;4.30;;;1.00;;
50569;SDS011;36525;49.398;7.614;2022-10-16T06:11:42;8.05;;;1.30;;
50569;SDS011;36525;49.398;7.614;2022-10-16T06:14:09;3.60;;;1.50;;
50569;SDS011;36525;49.398;7.614;2022-10-16T06:16:37;4.85;;;1.20;;
50569;SDS011;36525;49.398;7.614;2022-10-16T06:19:04;3.92;;;1.25;;
50569;SDS011;36525;49.398;7.614;2022-10-16T06:21:34;1.45;;;0.90;;
50569;SDS011;36525;49.398;7.614;2022-10-16T06:24:01;2.35;;;1.10;;
50569;SDS011;36525;49.398;7.614;2022-10-16T06:26:29;2.08;;;1.15;;
50569;SDS011;36525;49.398;7.614;2022-10-16T06:28:57;5.53;;;1.50;;
50569;SDS011;36525;49.398;7.614;2022-10-16T06:31:26;2.95;;;1.20;;
50569;SDS011;36525;49.398;7.614;2022-10-16T06:33:56;1.90;;;1.05;;
50569;SDS011;36525;49.398;7.614;2022-10-16T06:36:24;5.38;;;1.33;;
50569;SDS011;36525;49.398;7.614;2022-10-16T06:38:51;2.20;;;1.15;;
50569;SDS011;36525;49.398;7.614;2022-10-16T06:41:20;1.88;;;0.98;;
50569;SDS011;36525;49.398;7.614;2022-10-16T06:43:48;3.15;;;1.20;;
50569;SDS011;36525;49.398;7.614;2022-10-16T06:46:17;3.38;;;1.02;;
50569;SDS011;36525;49.398;7.614;2022-10-16T06:48:46;4.15;;;1.00;;
50569;SDS011;36525;49.398;7.614;2022-10-16T06:51:14;3.17;;;1.10;;
50569;SDS011;36525;49.398;7.614;2022-10-16T06:53:50;2.08;;;1.00;;
50569;SDS011;36525;49.398;7.614;2022-10-16T06:56:30;2.17;;;0.85;;
50569;SDS011;36525;49.398;7.614;2022-10-16T06:58:58;3.53;;;0.90;;
50569;SDS011;36525;49.398;7.614;2022-10-16T07:01:25;3.42;;;1.15;;
50569;SDS011;36525;49.398;7.614;2022-10-16T07:03:53;4.15;;;1.10;;
50569;SDS011;36525;49.398;7.614;2022-10-16T07:06:21;6.47;;;1.10;;
50569;SDS011;36525;49.398;7.614;2022-10-16T07:08:50;2.67;;;1.33;;
50569;SDS011;36525;49.398;7.614;2022-10-16T07:11:19;3.80;;;1.20;;
50569;SDS011;36525;49.398;7.614;2022-10-16T07:13:48;5.45;;;1.50;;
50569;SDS011;36525;49.398;7.614;2022-10-16T07:16:22;3.47;;;1.10;;
50569;SDS011;36525;49.398;7.614;2022-10-16T07:18:55;2.95;;;0.88;;
50569;SDS011;36525;49.398;7.614;2022-10-16T07:21:30;2.92;;;1.00;;
50569;SDS011;36525;49.398;7.614;2022-10-16T07:24:03;2.88;;;1.25;;
50569;SDS011;36525;49.398;7.614;2022-10-16T07:26:34;4.75;;;0.90;;
50569;SDS011;36525;49.398;7.614;2022-10-16T07:29:02;3.47;;;1.10;;
50569;SDS011;36525;49.398;7.614;2022-10-16T07:31:29;5.55;;;0.98;;
50569;SDS011;36525;49.398;7.614;2022-10-16T07:33:57;3.28;;;1.13;;
50569;SDS011;36525;49.398;7.614;2022-10-16T07:36:25;5.28;;;1.00;;
50569;SDS011;36525;49.398;7.614;2022-10-16T07:38:52;7.03;;;4.15;;
50569;SDS011;36525;49.398;7.614;2022-10-16T07:41:25;7.82;;;4.30;;
50569;SDS011;36525;49.398;7.614;2022-10-16T07:43:53;10.98;;;3.03;;
50569;SDS011;36525;49.398;7.614;2022-10-16T07:46:21;5.53;;;2.03;;
50569;SDS011;36525;49.398;7.614;2022-10-16T07:48:49;4.30;;;1.52;;
50569;SDS011;36525;49.398;7.614;2022-10-16T07:51:20;4.78;;;1.77;;
50569;SDS011;36525;49.398;7.614;2022-10-16T07:53:50;2.55;;;1.02;;
50569;SDS011;36525;49.398;7.614;2022-10-16T07:56:17;3.35;;;1.17;;
50569;SDS011;36525;49.398;7.614;2022-10-16T07:58:46;2.85;;;1.60;;
50569;SDS011;36525;49.398;7.614;2022-10-16T08:01:16;3.75;;;1.83;;
50569;SDS011;36525;49.398;7.614;2022-10-16T08:03:45;2.53;;;1.42;;
50569;SDS011;36525;49.398;7.614;2022-10-16T08:06:14;8.02;;;1.88;;
50569;SDS011;36525;49.398;7.614;2022-10-16T08:08:42;6.03;;;1.33;;
50569;SDS011;36525;49.398;7.614;2022-10-16T08:11:09;4.68;;;1.40;;
50569;SDS011;36525;49.398;7.614;2022-10-16T08:13:36;4.63;;;2.03;;
50569;SDS011;36525;49.398;7.614;2022-10-16T08:16:06;5.35;;;2.17;;
50569;SDS011;36525;49.398;7.614;2022-10-16T08:18:34;9.38;;;1.50;;
50569;SDS011;36525;49.398;7.614;2022-10-16T08:21:06;3.20;;;1.33;;
50569;SDS011;36525;49.398;7.614;2022-10-16T08:23:46;2.10;;;1.00;;
50569;SDS011;36525;49.398;7.614;2022-10-16T08:26:22;3.95;;;1.80;;
50569;SDS011;36525;49.398;7.614;2022-10-16T08:28:49;3.83;;;2.20;;
50569;SDS011;36525;49.398;7.614;2022-10-16T08:31:18;8.07;;;1.95;;
50569;SDS011;36525;49.398;7.614;2022-10-16T08:33:45;8.57;;;3.33;;
50569;SDS011;36525;49.398;7.614;2022-10-16T08:36:13;4.22;;;2.03;;
50569;SDS011;36525;49.398;7.614;2022-10-16T08:38:42;5.32;;;1.70;;
50569;SDS011;36525;49.398;7.614;2022-10-16T08:44:28;4.43;;;1.63;;
50569;SDS011;36525;49.398;7.614;2022-10-16T08:50:32;2.72;;;1.13;;
50569;SDS011;36525;49.398;7.614;2022-10-16T08:53:03;5.20;;;1.50;;
50569;SDS011;36525;49.398;7.614;2022-10-16T08:55:41;3.78;;;1.20;;
50569;SDS011;36525;49.398;7.614;2022-10-16T08:58:13;4.85;;;1.48;;
50569;SDS011;36525;49.398;7.614;2022-10-16T09:06:02;4.65;;;1.23;;
50569;SDS011;36525;49.398;7.614;2022-10-16T09:15:00;8.75;;;2.35;;
50569;SDS011;36525;49.398;7.614;2022-10-16T09:17:39;5.25;;;1.88;;
50569;SDS011;36525;49.398;7.614;2022-10-16T09:23:29;3.65;;;1.75;;
50569;SDS011;36525;49.398;7.614;2022-10-16T09:26:00;5.78;;;1.58;;
50569;SDS011;36525;49.398;7.614;2022-10-16T09:28:29;5.93;;;2.03;;
50569;SDS011;36525;49.398;7.614;2022-10-16T09:30:55;4.47;;;1.48;;
50569;SDS011;36525;49.398;7.614;2022-10-16T09:33:28;7.05;;;1.90;;
50569;SDS011;36525;49.398;7.614;2022-10-16T09:36:03;4.97;;;1.67;;
50569;SDS011;36525;49.398;7.614;2022-10-16T09:38:33;4.65;;;1.88;;
50569;SDS011;36525;49.398;7.614;2022-10-16T09:41:13;4.50;;;1.85;;
50569;SDS011;36525;49.398;7.614;2022-10-16T09:43:52;7.28;;;1.80;;
50569;SDS011;36525;49.398;7.614;2022-10-16T09:48:58;5.28;;;1.40;;
50569;SDS011;36525;49.398;7.614;2022-10-16T09:54:14;3.63;;;1.30;;
50569;SDS011;36525;49.398;7.614;2022-10-16T09:56:46;4.57;;;1.65;;
50569;SDS011;36525;49.398;7.614;2022-10-16T09:59:21;5.30;;;1.63;;
50569;SDS011;36525;49.398;7.614;2022-10-16T10:01:54;4.80;;;1.92;;
50569;SDS011;36525;49.398;7.614;2022-10-16T10:04:22;4.32;;;1.77;;
50569;SDS011;36525;49.398;7.614;2022-10-16T10:06:52;4.13;;;1.80;;
50569;SDS011;36525;49.398;7.614;2022-10-16T10:11:54;5.47;;;2.08;;
50569;SDS011;36525;49.398;7.614;2022-10-16T10:30:29;3.55;;;1.70;;
50569;SDS011;36525;49.398;7.614;2022-10-16T10:33:17;5.88;;;2.42;;
50569;SDS011;36525;49.398;7.614;2022-10-16T10:38:59;2.50;;;1.38;;
50569;SDS011;36525;49.398;7.614;2022-10-16T10:47:47;3.30;;;1.67;;
50569;SDS011;36525;49.398;7.614;2022-10-16T10:50:56;7.38;;;1.70;;
50569;SDS011;36525;49.398;7.614;2022-10-16T10:56:10;5.85;;;1.63;;
50569;SDS011;36525;49.398;7.614;2022-10-16T11:02:26;3.20;;;1.45;;
50569;SDS011;36525;49.398;7.614;2022-10-16T11:07:58;4.22;;;1.30;;
50569;SDS011;36525;49.398;7.614;2022-10-16T11:16:11;5.93;;;1.23;;
50569;SDS011;36525;49.398;7.614;2022-10-16T11:19:32;3.40;;;1.35;;
50569;SDS011;36525;49.398;7.614;2022-10-16T11:21:39;4.53;;;1.50;;
50569;SDS011;36525;49.398;7.614;2022-10-16T11:27:00;7.93;;;1.83;;
50569;SDS011;36525;49.398;7.614;2022-10-16T11:29:34;6.13;;;1.60;;
50569;SDS011;36525;49.398;7.614;2022-10-16T11:32:19;2.67;;;1.25;;
50569;SDS011;36525;49.398;7.614;2022-10-16T11:34:57;2.45;;;1.40;;
50569;SDS011;36525;49.398;7.614;2022-10-16T11:37:36;7.27;;;1.57;;
50569;SDS011;36525;49.398;7.614;2022-10-16T11:42:59;4.50;;;1.38;;
50569;SDS011;36525;49.398;7.614;2022-10-16T11:46:15;6.43;;;1.30;;
50569;SDS011;36525;49.398;7.614;2022-10-16T11:51:18;4.28;;;1.10;;
50569;SDS011;36525;49.398;7.614;2022-10-16T11:57:03;4.88;;;1.88;;
50569;SDS011;36525;49.398;7.614;2022-10-16T11:59:52;4.65;;;1.90;;
50569;SDS011;36525;49.398;7.614;2022-10-16T12:10:38;4.93;;;1.70;;
50569;SDS011;36525;49.398;7.614;2022-10-16T12:18:42;2.42;;;1.08;;
50569;SDS011;36525;49.398;7.614;2022-10-16T12:21:11;4.55;;;1.10;;
50569;SDS011;36525;49.398;7.614;2022-10-16T12:26:28;3.85;;;1.20;;
50569;SDS011;36525;49.398;7.614;2022-10-16T12:31:52;5.72;;;1.30;;
50569;SDS011;36525;49.398;7.614;2022-10-16T12:34:26;3.60;;;1.50;;
50569;SDS011;36525;49.398;7.614;2022-10-16T12:36:54;3.63;;;1.30;;
50569;SDS011;36525;49.398;7.614;2022-10-16T12:39:24;3.50;;;1.52;;
50569;SDS011;36525;49.398;7.614;2022-10-16T12:42:00;2.58;;;1.33;;
50569;SDS011;36525;49.398;7.614;2022-10-16T12:44:33;6.30;;;2.97;;
50569;SDS011;36525;49.398;7.614;2022-10-16T12:47:02;7.60;;;2.10;;
50569;SDS011;36525;49.398;7.614;2022-10-16T12:49:31;4.78;;;1.70;;
50569;SDS011;36525;49.398;7.614;2022-10-16T12:52:04;7.90;;;1.50;;
50569;SDS011;36525;49.398;7.614;2022-10-16T12:57:08;4.43;;;1.70;;
50569;SDS011;36525;49.398;7.614;2022-10-16T13:00:23;7.65;;;2.05;;
50569;SDS011;36525;49.398;7.614;2022-10-16T13:06:16;7.20;;;1.63;;
50569;SDS011;36525;49.398;7.614;2022-10-16T13:20:29;6.93;;;1.83;;
50569;SDS011;36525;49.398;7.614;2022-10-16T13:23:17;9.00;;;2.38;;
50569;SDS011;36525;49.398;7.614;2022-10-16T13:29:15;9.88;;;2.00;;
50569;SDS011;36525;49.398;7.614;2022-10-16T13:31:42;9.45;;;3.42;;
50569;SDS011;36525;49.398;7.614;2022-10-16T13:34:15;4.82;;;2.05;;
50569;SDS011;36525;49.398;7.614;2022-10-16T13:36:50;8.85;;;2.70;;
50569;SDS011;36525;49.398;7.614;2022-10-16T13:44:39;3.92;;;1.98;;
50569;SDS011;36525;49.398;7.614;2022-10-16T13:47:15;8.20;;;2.50;;
50569;SDS011;36525;49.398;7.614;2022-10-16T13:50:00;7.43;;;2.10;;
50569;SDS011;36525;49.398;7.614;2022-10-16T13:55:10;3.45;;;1.65;;
50569;SDS011;36525;49.398;7.614;2022-10-16T13:57:42;4.28;;;1.30;;
50569;SDS011;36525;49.398;7.614;2022-10-16T14:02:51;8.02;;;1.80;;
50569;SDS011;36525;49.398;7.614;2022-10-16T14:05:27;8.60;;;2.05;;
50569;SDS011;36525;49.398;7.614;2022-10-16T14:07:55;2.97;;;1.42;;
50569;SDS011;36525;49.398;7.614;2022-10-16T14:15:25;5.32;;;2.40;;
50569;SDS011;36525;49.398;7.614;2022-10-16T14:17:52;9.55;;;1.88;;
50569;SDS011;36525;49.398;7.614;2022-10-16T14:20:20;5.45;;;2.08;;
50569;SDS011;36525;49.398;7.614;2022-10-16T14:23:00;2.95;;;1.60;;
50569;SDS011;36525;49.398;7.614;2022-10-16T14:25:45;2.40;;;1.30;;
50569;SDS011;36525;49.398;7.614;2022-10-16T14:30:50;7.78;;;2.03;;
50569;SDS011;36525;49.398;7.614;2022-10-16T14:33:38;6.65;;;1.73;;
50569;SDS011;36525;49.398;7.614;2022-10-16T14:36:06;4.00;;;1.58;;
50569;SDS011;36525;49.398;7.614;2022-10-16T14:38:43;2.25;;;1.10;;
50569;SDS011;36525;49.398;7.614;2022-10-16T14:41:21;5.18;;;1.42;;
50569;SDS011;36525;49.398;7.614;2022-10-16T14:43:50;5.90;;;2.42;;
50569;SDS011;36525;49.398;7.614;2022-10-16T14:46:21;6.10;;;3.67;;
50569;SDS011;36525;49.398;7.614;2022-10-16T14:49:00;5.15;;;1.20;;
50569;SDS011;36525;49.398;7.614;2022-10-16T14:51:44;7.43;;;1.77;;
50569;SDS011;36525;49.398;7.614;2022-10-16T14:54:12;4.40;;;1.65;;
50569;SDS011;36525;49.398;7.614;2022-10-16T14:56:46;2.58;;;1.30;;
50569;SDS011;36525;49.398;7.614;2022-10-16T15:01:52;5.50;;;2.47;;
50569;SDS011;36525;49.398;7.614;2022-10-16T15:04:19;7.25;;;1.90;;
50569;SDS011;36525;49.398;7.614;2022-10-16T15:06:46;3.53;;;1.50;;
50569;SDS011;36525;49.398;7.614;2022-10-16T15:09:13;4.20;;;1.73;;
50569;SDS011;36525;49.398;7.614;2022-10-16T15:11:40;5.22;;;1.30;;
50569;SDS011;36525;49.398;7.614;2022-10-16T15:14:11;5.40;;;1.52;;
50569;SDS011;36525;49.398;7.614;2022-10-16T15:16:39;6.13;;;1.45;;
50569;SDS011;36525;49.398;7.614;2022-10-16T15:19:07;5.18;;;1.90;;
50569;SDS011;36525;49.398;7.614;2022-10-16T15:21:34;6.00;;;1.83;;
50569;SDS011;36525;49.398;7.614;2022-10-16T15:24:00;6.32;;;1.60;;
50569;SDS011;36525;49.398;7.614;2022-10-16T15:26:28;7.43;;;2.30;;
50569;SDS011;36525;49.398;7.614;2022-10-16T15:28:55;6.22;;;2.22;;
50569;SDS011;36525;49.398;7.614;2022-10-16T15:31:23;8.80;;;2.65;;
50569;SDS011;36525;49.398;7.614;2022-10-16T15:33:51;6.90;;;2.55;;
50569;SDS011;36525;49.398;7.614;2022-10-16T15:36:25;9.77;;;2.03;;
50569;SDS011;36525;49.398;7.614;2022-10-16T15:38:54;5.30;;;2.38;;
50569;SDS011;36525;49.398;7.614;2022-10-16T15:41:22;5.55;;;2.45;;
50569;SDS011;36525;49.398;7.614;2022-10-16T15:43:49;6.25;;;2.33;;
50569;SDS011;36525;49.398;7.614;2022-10-16T15:46:18;4.20;;;1.88;;
50569;SDS011;36525;49.398;7.614;2022-10-16T15:48:47;9.82;;;2.35;;
50569;SDS011;36525;49.398;7.614;2022-10-16T15:51:15;7.53;;;1.70;;
50569;SDS011;36525;49.398;7.614;2022-10-16T15:53:43;6.25;;;1.70;;
50569;SDS011;36525;49.398;7.614;2022-10-16T15:56:13;3.92;;;1.60;;
50569;SDS011;36525;49.398;7.614;2022-10-16T15:58:40;6.88;;;1.85;;
50569;SDS011;36525;49.398;7.614;2022-10-16T16:01:09;5.93;;;1.98;;
50569;SDS011;36525;49.398;7.614;2022-10-16T16:03:37;4.78;;;1.88;;
50569;SDS011;36525;49.398;7.614;2022-10-16T16:06:09;4.75;;;2.13;;
50569;SDS011;36525;49.398;7.614;2022-10-16T16:08:38;7.90;;;2.58;;
50569;SDS011;36525;49.398;7.614;2022-10-16T16:11:06;7.35;;;2.55;;
50569;SDS011;36525;49.398;7.614;2022-10-16T16:13:36;7.82;;;4.10;;
50569;SDS011;36525;49.398;7.614;2022-10-16T16:16:11;8.05;;;5.60;;
50569;SDS011;36525;49.398;7.614;2022-10-16T16:18:41;10.80;;;5.38;;
50569;SDS011;36525;49.398;7.614;2022-10-16T16:21:09;9.32;;;5.28;;
50569;SDS011;36525;49.398;7.614;2022-10-16T16:23:38;11.65;;;5.05;;
50569;SDS011;36525;49.398;7.614;2022-10-16T16:26:18;8.00;;;5.68;;
50569;SDS011;36525;49.398;7.614;2022-10-16T16:28:55;8.82;;;5.05;;
50569;SDS011;36525;49.398;7.614;2022-10-16T16:31:24;9.15;;;6.35;;
50569;SDS011;36525;49.398;7.614;2022-10-16T16:33:53;13.27;;;6.07;;
50569;SDS011;36525;49.398;7.614;2022-10-16T16:36:20;20.33;;;7.13;;
50569;SDS011;36525;49.398;7.614;2022-10-16T16:38:47;10.20;;;6.00;;
50569;SDS011;36525;49.398;7.614;2022-10-16T16:41:15;13.35;;;6.63;;
50569;SDS011;36525;49.398;7.614;2022-10-16T16:43:45;11.55;;;6.88;;
50569;SDS011;36525;49.398;7.614;2022-10-16T16:46:17;11.93;;;8.50;;
50569;SDS011;36525;49.398;7.614;2022-10-16T16:48:45;12.65;;;6.93;;
50569;SDS011;36525;49.398;7.614;2022-10-16T16:51:13;17.00;;;7.40;;
50569;SDS011;36525;49.398;7.614;2022-10-16T16:53:46;13.30;;;7.88;;
50569;SDS011;36525;49.398;7.614;2022-10-16T16:56:17;20.15;;;11.98;;
50569;SDS011;36525;49.398;7.614;2022-10-16T16:58:46;17.85;;;11.60;;
50569;SDS011;36525;49.398;7.614;2022-10-16T17:01:14;21.58;;;13.88;;
50569;SDS011;36525;49.398;7.614;2022-10-16T17:03:47;14.32;;;10.43;;
50569;SDS011;36525;49.398;7.614;2022-10-16T17:06:18;16.17;;;9.18;;
50569;SDS011;36525;49.398;7.614;2022-10-16T17:08:48;22.77;;;14.95;;
50569;SDS011;36525;49.398;7.614;2022-10-16T17:11:17;18.60;;;13.32;;
50569;SDS011;36525;49.398;7.614;2022-10-16T17:13:50;14.30;;;10.45;;
50569;SDS011;36525;49.398;7.614;2022-10-16T17:16:23;9.68;;;8.15;;
50569;SDS011;36525;49.398;7.614;2022-10-16T17:19:00;9.90;;;6.65;;
50569;SDS011;36525;49.398;7.614;2022-10-16T17:21:33;20.02;;;9.45;;
50569;SDS011;36525;49.398;7.614;2022-10-16T17:24:00;16.25;;;10.30;;
50569;SDS011;36525;49.398;7.614;2022-10-16T17:26:28;16.45;;;10.57;;
50569;SDS011;36525;49.398;7.614;2022-10-16T17:28:59;21.13;;;13.20;;
50569;SDS011;36525;49.398;7.614;2022-10-16T17:31:31;19.27;;;12.48;;
50569;SDS011;36525;49.398;7.614;2022-10-16T17:34:02;14.15;;;9.13;;
50569;SDS011;36525;49.398;7.614;2022-10-16T17:36:32;16.80;;;10.57;;
50569;SDS011;36525;49.398;7.614;2022-10-16T17:39:03;17.00;;;10.15;;
50569;SDS011;36525;49.398;7.614;2022-10-16T17:41:33;16.92;;;12.05;;
50569;SDS011;36525;49.398;7.614;2022-10-16T17:44:01;18.02;;;11.15;;
50569;SDS011;36525;49.398;7.614;2022-10-16T17:46:30;16.73;;;10.10;;
50569;SDS011;36525;49.398;7.614;2022-10-16T17:49:05;24.40;;;10.95;;
50569;SDS011;36525;49.398;7.614;2022-10-16T17:51:32;24.45;;;13.50;;
50569;SDS011;36525;49.398;7.614;2022-10-16T17:53:59;26.27;;;15.05;;